»·PEaware :: ASA103 KSJC-KLAX

ASA103 :: KSJC-KLAX

FLIGHT INFORMATION

Flight Status: Arrived
Operator:
Alaska Airlines
More flights by this operator :: More flights under this callsign
Pilot: Andrew C. (28419)
Aircraft: BOEING 737-800
(B738)
More flights by this aircraft type
Origin: KSJC Mineta San Jose Intl
United States
Destination: KLAX Los Angeles Intl
United States
More flights between these airports :: More routes between these airports
Route: TECKY3 EBAYE BURGL IRNMN2
File this flight plan on PilotEdge
Remarks: RMK / SIMBRIEF
Altitude:
(Current/Filed)
35,000ft
Speed:
(Current/Filed)
453kts
Departed: 12-Jun-20 06:20 PM
Arrived: 12-Jun-20 07:16 PM
Distance/Time
Traveled:
268nm/0:55
Distance/Time
To Go:
Arrived

Flight Plot

Page will automatically refresh every two minutes.

Flight plan parsing failed; only flown route is shown


Map Options




Map Legend


Flown Route
Filed Route
Departure Airport
Arrival Airport
Navaid (VOR, NDB)
Fix

Horizontal Profiles

Position Reports

Time Latitude Longitude Heading Altitude Ground
Speed
12-Jun-20 17:51 37.365991 -121.926408 49 53ft 0kts
12-Jun-20 17:52 37.365991 -121.926408 49 53ft 0kts
12-Jun-20 17:53 37.365991 -121.926408 49 53ft 0kts
12-Jun-20 17:54 37.365991 -121.926408 49 53ft 0kts
12-Jun-20 17:55 37.365991 -121.926408 49 53ft 0kts
12-Jun-20 17:56 37.365991 -121.926408 49 53ft 0kts
12-Jun-20 17:57 37.365991 -121.926408 49 53ft 0kts
12-Jun-20 17:58 37.365991 -121.926408 49 53ft 0kts
12-Jun-20 17:59 37.365991 -121.926408 49 53ft 0kts
12-Jun-20 18:00 37.365991 -121.926408 49 53ft 0kts
12-Jun-20 18:01 37.365991 -121.926408 49 53ft 0kts
12-Jun-20 18:02 37.365991 -121.926408 49 53ft 0kts
12-Jun-20 18:03 37.365991 -121.926408 49 53ft 0kts
12-Jun-20 18:04 37.365991 -121.926408 49 53ft 0kts
12-Jun-20 18:05 37.365991 -121.926408 49 53ft 0kts
12-Jun-20 18:06 37.365991 -121.926408 49 53ft 0kts
12-Jun-20 18:07 37.365991 -121.926408 49 53ft 0kts
12-Jun-20 18:08 37.365991 -121.926408 49 53ft 0kts
12-Jun-20 18:09 37.365991 -121.926408 49 53ft 0kts
12-Jun-20 18:10 37.365991 -121.926408 49 53ft 0kts
12-Jun-20 18:11 37.365837 -121.926633 49 53ft 2kts
12-Jun-20 18:12 37.365686 -121.927303 122 53ft 2kts
12-Jun-20 18:13 37.365792 -121.927446 139 53ft 0kts
12-Jun-20 18:14 37.365792 -121.927446 139 53ft 0kts
12-Jun-20 18:15 37.364388 -121.925831 137 53ft 18kts
12-Jun-20 18:16 37.358411 -121.919360 138 53ft 31kts
12-Jun-20 18:17 37.353077 -121.914486 223 53ft 5kts
12-Jun-20 18:18 37.352994 -121.914586 223 53ft 4kts
12-Jun-20 18:19 37.355263 -121.918573 318 53ft 93kts
12-Jun-20 18:20 37.388425 -121.954818 315 1774ft 211kts
12-Jun-20 18:21 37.444442 -121.966996 41 4800ft 269kts
12-Jun-20 18:22 37.430423 -121.893095 165 4970ft 255kts
12-Jun-20 18:23 37.376431 -121.837790 141 4985ft 261kts
12-Jun-20 18:24 37.319931 -121.778434 141 7983ft 268kts
12-Jun-20 18:25 37.264231 -121.714750 141 10975ft 273kts
12-Jun-20 18:26 37.207588 -121.650567 142 13639ft 278kts
12-Jun-20 18:27 37.148996 -121.584298 143 15951ft 288kts
12-Jun-20 18:28 37.083116 -121.510163 142 16906ft 360kts
12-Jun-20 18:29 37.004140 -121.424426 144 19229ft 381kts
12-Jun-20 18:31 36.921160 -121.336072 145 21409ft 399kts
12-Jun-20 18:32 36.835646 -121.245084 145 23358ft 415kts
12-Jun-20 18:33 36.745763 -121.149702 146 25252ft 427kts
12-Jun-20 18:34 36.653271 -121.051850 146 27062ft 436kts
12-Jun-20 18:35 36.558744 -120.953926 148 28706ft 443kts
12-Jun-20 18:36 36.462032 -120.856052 148 30244ft 449kts
12-Jun-20 18:37 36.365248 -120.757921 148 32098ft 443kts
12-Jun-20 18:38 36.269816 -120.661422 149 33771ft 438kts
12-Jun-20 18:39 36.176004 -120.566878 149 35031ft 435kts
12-Jun-20 18:40 36.082726 -120.473142 150 35045ft 428kts
12-Jun-20 18:41 35.990380 -120.380686 150 35045ft 428kts
12-Jun-20 18:42 35.899802 -120.290249 151 35060ft 426kts
12-Jun-20 18:43 35.802352 -120.210667 158 35068ft 418kts
12-Jun-20 18:44 35.703058 -120.135511 158 35052ft 417kts
12-Jun-20 18:44 35.620565 -120.073304 158 35037ft 417kts
12-Jun-20 18:46 35.504588 -119.985847 158 35037ft 417kts
12-Jun-20 18:47 35.406601 -119.912092 158 35059ft 412kts
12-Jun-20 18:47 35.324969 -119.850875 158 35072ft 412kts
12-Jun-20 18:49 35.215714 -119.755434 152 35073ft 414kts
12-Jun-20 18:50 35.123101 -119.669082 152 34349ft 417kts
12-Jun-20 18:50 35.046119 -119.597370 152 32816ft 422kts
12-Jun-20 18:52 34.937990 -119.496737 152 29645ft 411kts
12-Jun-20 18:53 34.848114 -119.415640 153 29029ft 412kts
12-Jun-20 18:53 34.772442 -119.348083 153 27159ft 401kts
12-Jun-20 18:54 34.683127 -119.269569 153 24872ft 388kts
12-Jun-20 18:55 34.594476 -119.192956 153 23874ft 389kts
12-Jun-20 18:56 34.506156 -119.115695 151 20704ft 398kts
12-Jun-20 18:57 34.422569 -119.041698 152 18382ft 358kts
12-Jun-20 18:58 34.341800 -118.971995 151 16232ft 351kts
12-Jun-20 18:59 34.264205 -118.901639 149 14181ft 342kts
12-Jun-20 19:00 34.189892 -118.833398 148 12759ft 313kts
12-Jun-20 19:01 34.126308 -118.768617 142 11545ft 298kts
12-Jun-20 19:02 34.065864 -118.702806 141 10091ft 291kts
12-Jun-20 19:03 34.026164 -118.621223 102 8919ft 290kts
12-Jun-20 19:04 34.016521 -118.524173 98 7713ft 281kts
12-Jun-20 19:05 34.012961 -118.442101 81 6870ft 269kts
12-Jun-20 19:06 34.027659 -118.354554 81 6023ft 254kts
12-Jun-20 19:07 34.035586 -118.276933 84 5022ft 235kts
12-Jun-20 19:08 34.038420 -118.201212 121 3890ft 223kts
12-Jun-20 19:09 33.998254 -118.200267 229 3064ft 169kts
12-Jun-20 19:10 33.971799 -118.241157 232 2883ft 175kts
12-Jun-20 19:11 33.963815 -118.289743 259 1788ft 163kts
12-Jun-20 19:12 33.959616 -118.329100 263 1382ft 140kts
12-Jun-20 19:13 33.955217 -118.370828 262 651ft 142kts
12-Jun-20 19:14 33.950874 -118.413906 262 115ft 66kts
12-Jun-20 19:15 33.948375 -118.426916 222 115ft 26kts
12-Jun-20 19:16 33.946341 -118.427401 118 115ft 0kts
12-Jun-20 19:17 33.946470 -118.425805 81 115ft 13kts
12-Jun-20 19:18 33.946933 -118.421311 83 115ft 23kts
12-Jun-20 19:19 33.947647 -118.414141 106 115ft 0kts
12-Jun-20 19:20 33.941295 -118.413019 173 115ft 22kts
12-Jun-20 19:21 33.938571 -118.410300 82 115ft 16kts
12-Jun-20 19:22 33.939243 -118.403645 81 115ft 17kts
12-Jun-20 19:23 33.940434 -118.402535 84 115ft 0kts
12-Jun-20 19:24 33.940434 -118.402535 84 115ft 0kts
12-Jun-20 19:25 33.940434 -118.402535 84 116ft 0kts
12-Jun-20 19:26 33.940434 -118.402535 84 116ft 0kts
12-Jun-20 19:27 33.940434 -118.402535 84 116ft 0kts
12-Jun-20 19:28 33.940434 -118.402535 84 116ft 0kts
12-Jun-20 19:29 33.940434 -118.402535 84 116ft 0kts

Navigation Log

Ident Type
Flight plan parsing failed, navigation log unavailable